Vallecitos, NM (87581)

2:21 AM MDT on August 31, 2014 (GMT -0600)
RAWS TAOS PORTABLE #2 NM US | Change Station
CLOSE
Current Station
Personal Weather Station
Location: Tres Piedras, NM
Elevation: 8339 ft
Nearby Weather Stations

Elev 8339 ft 36.73 °N, 105.93 °W | Updated 41 minutes ago

Clear
Clear
55 °F
Feels Like 55 °F
N
3
Wind Variable Wind from SSE
Gusts 5.0 mph

Today
High -- | Low -- °F
--% Chance of Precip.
Yesterday
High -- | Low -- °F
Precip. -- in
6:34 AM 7:33 PM
Waxing Crescent, 29% visible
Pressure 30.27 in
Visibility 10.0 miles
Clouds Clear
Dew Point 29 °F
Humidity 37%
Rainfall 0.00 in
Snow Depth Not available.
UV 0 out of 12
Pollen 8.70 out of 12
Air Quality Not available.
Flu Activity Not available.
METAR KAXX 310815Z AUTO 00000KT 10SM CLR 04/02 A3027 RMK AO2 T00390016

More Conditions Fewer Conditions

Pressure 30.27 in
Visibility 10.0 miles
Clouds Clear
Dew Point 29 °F
Humidity 37%
Rainfall 0.00 in
Snow Depth Not available.
UV 0 out of 12
Pollen 8.70 out of 12
Air Quality Not available.
Flu Activity Not available.
METAR KAXX 310815Z AUTO 00000KT 10SM CLR 04/02 A3027 RMK AO2 T00390016

More Conditions Fewer Conditions

10-Day Weather Forecast

Almanac

Astronomy

Aug. 31, 2014 Rise Set
Actual Time 6:34 AM MDT 7:33 PM MDT
Civil Twilight 6:08 AM MDT 8:00 PM MDT
Nautical Twilight 5:36 AM MDT 8:31 PM MDT
Astronomical Twilight 5:04 AM MDT 9:04 PM MDT
Moon 12:14 PM MDT 11:01 PM MDT
Length of Visible Light 13h 52m
Length of Day
12h 59m
Tomorrow will be 2m 14s shorter.
Waxing Crescent, 29% of the Moon is Illuminated
Today
Waxing Crescent
Sep 2
First Quarter
Sep 8
Full
Sep 15
Last Quarter
Sep 24
New

Today's Extremes

State Highs State Lows

Community

WunderPhotos

Upload Photos

1,748,820 photos uploaded!

Nearby

Snow Depth

Station Depth Elevation
Hopewell 0 in 10000 ft
Bateman 0 in 9300 ft
Chamita 0 in 8400 ft
Red River Pass #2 0 in 9850 ft
Gallegos Peak 0 in 9800 ft

Earthquake Activity

City Distance Mag. Time & Date
No recent earthquake activity has been reported nearby.
Minimum magnitude displayed is 2.5.

Coastal Water Temperatures

Place Temperature
No Stations Reporting

Nearby Weather Stations